sensor_id;sensor_type;location;lat;lon;timestamp;temperature;humidity
61374;DHT22;47242;48.158;-1.586;2022-07-23T00:01:32;17.70;68.70
61374;DHT22;47242;48.158;-1.586;2022-07-23T00:03:58;17.70;68.90
61374;DHT22;47242;48.158;-1.586;2022-07-23T00:06:25;17.70;68.50
61374;DHT22;47242;48.158;-1.586;2022-07-23T00:08:51;17.60;68.50
61374;DHT22;47242;48.158;-1.586;2022-07-23T00:11:17;17.60;68.60
61374;DHT22;47242;48.158;-1.586;2022-07-23T00:13:43;17.60;69.00
61374;DHT22;47242;48.158;-1.586;2022-07-23T00:16:09;17.60;69.30
61374;DHT22;47242;48.158;-1.586;2022-07-23T00:18:35;17.50;69.50
61374;DHT22;47242;48.158;-1.586;2022-07-23T00:21:00;17.50;69.50
61374;DHT22;47242;48.158;-1.586;2022-07-23T00:23:26;17.60;69.20
61374;DHT22;47242;48.158;-1.586;2022-07-23T00:25:54;17.60;69.60
61374;DHT22;47242;48.158;-1.586;2022-07-23T00:28:20;17.60;69.50
61374;DHT22;47242;48.158;-1.586;2022-07-23T00:30:46;17.60;69.30
61374;DHT22;47242;48.158;-1.586;2022-07-23T00:33:12;17.60;69.50
61374;DHT22;47242;48.158;-1.586;2022-07-23T00:35:40;17.60;69.10
61374;DHT22;47242;48.158;-1.586;2022-07-23T00:38:07;17.60;69.20
61374;DHT22;47242;48.158;-1.586;2022-07-23T00:40:35;17.50;69.00
61374;DHT22;47242;48.158;-1.586;2022-07-23T00:43:01;17.40;69.70
61374;DHT22;47242;48.158;-1.586;2022-07-23T00:45:27;17.40;70.00
61374;DHT22;47242;48.158;-1.586;2022-07-23T00:47:53;17.40;69.90
61374;DHT22;47242;48.158;-1.586;2022-07-23T00:50:18;17.40;69.90
61374;DHT22;47242;48.158;-1.586;2022-07-23T00:52:44;17.30;69.70
61374;DHT22;47242;48.158;-1.586;2022-07-23T00:55:11;17.30;70.00
61374;DHT22;47242;48.158;-1.586;2022-07-23T00:57:38;17.20;70.30
61374;DHT22;47242;48.158;-1.586;2022-07-23T01:00:06;17.20;70.20
61374;DHT22;47242;48.158;-1.586;2022-07-23T01:02:32;17.10;70.20
61374;DHT22;47242;48.158;-1.586;2022-07-23T01:04:58;17.20;70.60
61374;DHT22;47242;48.158;-1.586;2022-07-23T01:07:23;17.10;70.30
61374;DHT22;47242;48.158;-1.586;2022-07-23T01:09:51;17.20;70.20
61374;DHT22;47242;48.158;-1.586;2022-07-23T01:12:17;17.20;70.50
61374;DHT22;47242;48.158;-1.586;2022-07-23T01:14:42;17.30;70.30
61374;DHT22;47242;48.158;-1.586;2022-07-23T01:17:08;17.30;69.90
61374;DHT22;47242;48.158;-1.586;2022-07-23T01:19:34;17.20;70.10
61374;DHT22;47242;48.158;-1.586;2022-07-23T01:22:03;17.20;69.80
61374;DHT22;47242;48.158;-1.586;2022-07-23T01:24:29;17.10;70.20
61374;DHT22;47242;48.158;-1.586;2022-07-23T01:26:55;17.20;70.30
61374;DHT22;47242;48.158;-1.586;2022-07-23T01:29:21;17.10;70.50
61374;DHT22;47242;48.158;-1.586;2022-07-23T01:31:47;17.10;70.60
61374;DHT22;47242;48.158;-1.586;2022-07-23T01:34:13;17.10;71.00
61374;DHT22;47242;48.158;-1.586;2022-07-23T01:36:40;17.10;70.80
61374;DHT22;47242;48.158;-1.586;2022-07-23T01:39:06;17.10;70.90
61374;DHT22;47242;48.158;-1.586;2022-07-23T01:41:33;17.10;70.80
61374;DHT22;47242;48.158;-1.586;2022-07-23T01:43:59;17.00;71.10
61374;DHT22;47242;48.158;-1.586;2022-07-23T01:46:24;17.10;70.90
61374;DHT22;47242;48.158;-1.586;2022-07-23T01:48:50;17.00;70.70
61374;DHT22;47242;48.158;-1.586;2022-07-23T01:51:16;17.10;71.40
61374;DHT22;47242;48.158;-1.586;2022-07-23T01:53:42;17.10;71.20
61374;DHT22;47242;48.158;-1.586;2022-07-23T01:56:07;17.00;71.40
61374;DHT22;47242;48.158;-1.586;2022-07-23T01:58:33;17.00;71.50
61374;DHT22;47242;48.158;-1.586;2022-07-23T02:00:59;17.00;71.20
61374;DHT22;47242;48.158;-1.586;2022-07-23T02:03:25;16.90;71.50
61374;DHT22;47242;48.158;-1.586;2022-07-23T02:05:51;17.00;71.40
61374;DHT22;47242;48.158;-1.586;2022-07-23T02:08:17;17.00;72.20
61374;DHT22;47242;48.158;-1.586;2022-07-23T02:10:43;17.00;71.60
61374;DHT22;47242;48.158;-1.586;2022-07-23T02:13:09;17.00;71.30
61374;DHT22;47242;48.158;-1.586;2022-07-23T02:15:35;17.00;71.70
61374;DHT22;47242;48.158;-1.586;2022-07-23T02:18:01;17.00;71.60
61374;DHT22;47242;48.158;-1.586;2022-07-23T02:20:26;17.00;71.50
61374;DHT22;47242;48.158;-1.586;2022-07-23T02:22:54;17.00;71.70
61374;DHT22;47242;48.158;-1.586;2022-07-23T02:25:20;17.00;71.60
61374;DHT22;47242;48.158;-1.586;2022-07-23T02:27:46;17.00;71.50
61374;DHT22;47242;48.158;-1.586;2022-07-23T02:30:12;17.00;71.80
61374;DHT22;47242;48.158;-1.586;2022-07-23T02:32:38;16.90;71.80
61374;DHT22;47242;48.158;-1.586;2022-07-23T02:35:06;17.00;71.70
61374;DHT22;47242;48.158;-1.586;2022-07-23T02:37:32;16.90;71.70
61374;DHT22;47242;48.158;-1.586;2022-07-23T02:40:00;16.90;71.90
61374;DHT22;47242;48.158;-1.586;2022-07-23T02:42:25;16.90;71.90
61374;DHT22;47242;48.158;-1.586;2022-07-23T02:44:51;16.90;72.00
61374;DHT22;47242;48.158;-1.586;2022-07-23T02:47:17;16.90;72.00
61374;DHT22;47242;48.158;-1.586;2022-07-23T02:49:43;16.90;71.80
61374;DHT22;47242;48.158;-1.586;2022-07-23T02:52:08;16.90;72.00
61374;DHT22;47242;48.158;-1.586;2022-07-23T02:54:36;16.90;72.00
61374;DHT22;47242;48.158;-1.586;2022-07-23T02:57:02;16.80;71.90
61374;DHT22;47242;48.158;-1.586;2022-07-23T02:59:30;16.80;71.60
61374;DHT22;47242;48.158;-1.586;2022-07-23T03:01:55;16.80;72.10
61374;DHT22;47242;48.158;-1.586;2022-07-23T03:04:21;16.80;72.30
61374;DHT22;47242;48.158;-1.586;2022-07-23T03:06:47;16.80;72.30
61374;DHT22;47242;48.158;-1.586;2022-07-23T03:09:12;16.70;71.80
61374;DHT22;47242;48.158;-1.586;2022-07-23T03:11:38;16.70;72.50
61374;DHT22;47242;48.158;-1.586;2022-07-23T03:14:04;16.80;72.10
61374;DHT22;47242;48.158;-1.586;2022-07-23T03:16:39;16.70;71.90
61374;DHT22;47242;48.158;-1.586;2022-07-23T03:19:04;16.60;72.40
61374;DHT22;47242;48.158;-1.586;2022-07-23T03:21:30;16.60;72.60
61374;DHT22;47242;48.158;-1.586;2022-07-23T03:23:56;16.60;72.50
61374;DHT22;47242;48.158;-1.586;2022-07-23T03:26:21;16.60;72.30
61374;DHT22;47242;48.158;-1.586;2022-07-23T03:28:50;16.60;72.30
61374;DHT22;47242;48.158;-1.586;2022-07-23T03:31:16;16.60;72.50
61374;DHT22;47242;48.158;-1.586;2022-07-23T03:33:42;16.60;72.70
61374;DHT22;47242;48.158;-1.586;2022-07-23T03:36:08;16.50;73.10
61374;DHT22;47242;48.158;-1.586;2022-07-23T03:38:33;16.50;73.00
61374;DHT22;47242;48.158;-1.586;2022-07-23T03:40:59;16.40;72.80
61374;DHT22;47242;48.158;-1.586;2022-07-23T03:43:25;16.40;72.80
61374;DHT22;47242;48.158;-1.586;2022-07-23T03:45:51;16.50;72.60
61374;DHT22;47242;48.158;-1.586;2022-07-23T03:48:17;16.50;72.30
61374;DHT22;47242;48.158;-1.586;2022-07-23T03:50:43;16.40;71.90
61374;DHT22;47242;48.158;-1.586;2022-07-23T03:53:08;16.30;71.90
61374;DHT22;47242;48.158;-1.586;2022-07-23T03:55:34;16.30;72.60
61374;DHT22;47242;48.158;-1.586;2022-07-23T03:58:00;16.30;72.70
61374;DHT22;47242;48.158;-1.586;2022-07-23T04:00:26;16.20;72.80
61374;DHT22;47242;48.158;-1.586;2022-07-23T04:02:52;16.20;73.20
61374;DHT22;47242;48.158;-1.586;2022-07-23T04:05:25;16.20;73.20
61374;DHT22;47242;48.158;-1.586;2022-07-23T04:07:50;16.10;73.20
61374;DHT22;47242;48.158;-1.586;2022-07-23T04:10:16;16.10;73.00
61374;DHT22;47242;48.158;-1.586;2022-07-23T04:12:42;16.10;73.30
61374;DHT22;47242;48.158;-1.586;2022-07-23T04:15:08;16.20;73.20
61374;DHT22;47242;48.158;-1.586;2022-07-23T04:17:34;16.10;73.10
61374;DHT22;47242;48.158;-1.586;2022-07-23T04:20:00;16.20;73.00
61374;DHT22;47242;48.158;-1.586;2022-07-23T04:22:26;16.10;72.60
61374;DHT22;47242;48.158;-1.586;2022-07-23T04:24:51;16.10;73.30
61374;DHT22;47242;48.158;-1.586;2022-07-23T04:27:17;16.00;73.10
61374;DHT22;47242;48.158;-1.586;2022-07-23T04:29:43;16.10;73.30
61374;DHT22;47242;48.158;-1.586;2022-07-23T04:32:09;16.00;73.40
61374;DHT22;47242;48.158;-1.586;2022-07-23T04:34:34;16.00;73.70
61374;DHT22;47242;48.158;-1.586;2022-07-23T04:37:00;16.10;73.60
61374;DHT22;47242;48.158;-1.586;2022-07-23T04:39:28;16.00;73.60
61374;DHT22;47242;48.158;-1.586;2022-07-23T04:41:56;16.00;73.60
61374;DHT22;47242;48.158;-1.586;2022-07-23T04:44:21;16.00;73.00
61374;DHT22;47242;48.158;-1.586;2022-07-23T04:46:47;16.00;73.80
61374;DHT22;47242;48.158;-1.586;2022-07-23T04:49:13;15.90;73.10
61374;DHT22;47242;48.158;-1.586;2022-07-23T04:51:38;15.90;73.40
61374;DHT22;47242;48.158;-1.586;2022-07-23T04:54:04;15.90;73.40
61374;DHT22;47242;48.158;-1.586;2022-07-23T04:56:30;15.90;73.50
61374;DHT22;47242;48.158;-1.586;2022-07-23T04:58:55;15.90;73.60
61374;DHT22;47242;48.158;-1.586;2022-07-23T05:01:21;15.90;73.70
61374;DHT22;47242;48.158;-1.586;2022-07-23T05:03:47;15.90;73.90
61374;DHT22;47242;48.158;-1.586;2022-07-23T05:06:14;15.90;73.60
61374;DHT22;47242;48.158;-1.586;2022-07-23T05:08:40;15.90;74.10
61374;DHT22;47242;48.158;-1.586;2022-07-23T05:11:05;15.80;74.30
61374;DHT22;47242;48.158;-1.586;2022-07-23T05:13:31;15.80;73.70
61374;DHT22;47242;48.158;-1.586;2022-07-23T05:15:57;15.80;73.80
61374;DHT22;47242;48.158;-1.586;2022-07-23T05:18:22;15.90;73.40
61374;DHT22;47242;48.158;-1.586;2022-07-23T05:20:48;15.90;73.90
61374;DHT22;47242;48.158;-1.586;2022-07-23T05:23:13;15.90;73.90
61374;DHT22;47242;48.158;-1.586;2022-07-23T05:25:39;15.90;73.50
61374;DHT22;47242;48.158;-1.586;2022-07-23T05:28:05;15.90;74.00
61374;DHT22;47242;48.158;-1.586;2022-07-23T05:30:31;15.90;73.70
61374;DHT22;47242;48.158;-1.586;2022-07-23T05:32:57;15.90;74.80
61374;DHT22;47242;48.158;-1.586;2022-07-23T05:35:22;15.90;74.50
61374;DHT22;47242;48.158;-1.586;2022-07-23T05:37:48;16.00;74.40
61374;DHT22;47242;48.158;-1.586;2022-07-23T05:40:14;16.00;74.20
61374;DHT22;47242;48.158;-1.586;2022-07-23T05:42:40;16.00;74.30
61374;DHT22;47242;48.158;-1.586;2022-07-23T05:45:08;16.00;74.20
61374;DHT22;47242;48.158;-1.586;2022-07-23T05:47:44;16.00;74.50
61374;DHT22;47242;48.158;-1.586;2022-07-23T05:50:11;16.10;74.50
61374;DHT22;47242;48.158;-1.586;2022-07-23T05:52:38;16.20;74.40
61374;DHT22;47242;48.158;-1.586;2022-07-23T05:55:04;16.10;74.40
61374;DHT22;47242;48.158;-1.586;2022-07-23T05:57:30;16.20;74.60
61374;DHT22;47242;48.158;-1.586;2022-07-23T05:59:55;16.20;74.50
61374;DHT22;47242;48.158;-1.586;2022-07-23T06:02:21;16.20;74.40
61374;DHT22;47242;48.158;-1.586;2022-07-23T06:04:47;16.20;75.40
61374;DHT22;47242;48.158;-1.586;2022-07-23T06:07:12;16.20;74.90
61374;DHT22;47242;48.158;-1.586;2022-07-23T06:09:38;16.30;74.50
61374;DHT22;47242;48.158;-1.586;2022-07-23T06:12:04;16.30;75.10
61374;DHT22;47242;48.158;-1.586;2022-07-23T06:14:29;16.30;75.70
61374;DHT22;47242;48.158;-1.586;2022-07-23T06:16:55;16.30;75.10
61374;DHT22;47242;48.158;-1.586;2022-07-23T06:19:21;16.30;75.40
61374;DHT22;47242;48.158;-1.586;2022-07-23T06:21:47;16.40;75.60
61374;DHT22;47242;48.158;-1.586;2022-07-23T06:24:12;16.40;75.20
61374;DHT22;47242;48.158;-1.586;2022-07-23T06:26:38;16.50;75.30
61374;DHT22;47242;48.158;-1.586;2022-07-23T06:29:04;16.50;75.00
61374;DHT22;47242;48.158;-1.586;2022-07-23T06:31:29;16.50;75.90
61374;DHT22;47242;48.158;-1.586;2022-07-23T06:33:55;16.60;75.30
61374;DHT22;47242;48.158;-1.586;2022-07-23T06:36:21;16.60;75.80
61374;DHT22;47242;48.158;-1.586;2022-07-23T06:38:46;16.70;75.10
61374;DHT22;47242;48.158;-1.586;2022-07-23T06:41:12;16.70;75.80
61374;DHT22;47242;48.158;-1.586;2022-07-23T06:43:38;16.80;75.60
61374;DHT22;47242;48.158;-1.586;2022-07-23T06:46:03;16.80;75.60
61374;DHT22;47242;48.158;-1.586;2022-07-23T06:48:29;16.80;75.80
61374;DHT22;47242;48.158;-1.586;2022-07-23T06:50:55;16.90;75.10
61374;DHT22;47242;48.158;-1.586;2022-07-23T06:53:21;16.90;76.30
61374;DHT22;47242;48.158;-1.586;2022-07-23T06:55:46;16.90;76.30
61374;DHT22;47242;48.158;-1.586;2022-07-23T06:58:12;17.00;76.60
61374;DHT22;47242;48.158;-1.586;2022-07-23T07:00:40;17.10;76.60
61374;DHT22;47242;48.158;-1.586;2022-07-23T07:03:05;17.10;76.50
61374;DHT22;47242;48.158;-1.586;2022-07-23T07:05:31;17.20;76.20
61374;DHT22;47242;48.158;-1.586;2022-07-23T07:07:57;17.30;76.20
61374;DHT22;47242;48.158;-1.586;2022-07-23T07:10:22;17.50;75.50
61374;DHT22;47242;48.158;-1.586;2022-07-23T07:12:48;17.60;75.50
61374;DHT22;47242;48.158;-1.586;2022-07-23T07:15:14;17.80;74.90
61374;DHT22;47242;48.158;-1.586;2022-07-23T07:17:39;18.00;74.40
61374;DHT22;47242;48.158;-1.586;2022-07-23T07:20:06;18.50;73.40
61374;DHT22;47242;48.158;-1.586;2022-07-23T07:22:32;18.70;73.30
61374;DHT22;47242;48.158;-1.586;2022-07-23T07:24:57;19.00;72.10
61374;DHT22;47242;48.158;-1.586;2022-07-23T07:27:23;19.50;71.30
61374;DHT22;47242;48.158;-1.586;2022-07-23T07:29:49;20.10;69.30
61374;DHT22;47242;48.158;-1.586;2022-07-23T07:32:14;21.00;66.70
61374;DHT22;47242;48.158;-1.586;2022-07-23T07:34:40;22.70;62.90
61374;DHT22;47242;48.158;-1.586;2022-07-23T07:37:06;25.10;55.20
61374;DHT22;47242;48.158;-1.586;2022-07-23T07:39:31;26.10;51.90
61374;DHT22;47242;48.158;-1.586;2022-07-23T07:41:57;27.90;47.90
61374;DHT22;47242;48.158;-1.586;2022-07-23T07:44:23;29.40;44.50
61374;DHT22;47242;48.158;-1.586;2022-07-23T07:46:48;31.00;41.90
61374;DHT22;47242;48.158;-1.586;2022-07-23T07:49:14;32.00;39.30
61374;DHT22;47242;48.158;-1.586;2022-07-23T07:51:39;32.90;37.10
61374;DHT22;47242;48.158;-1.586;2022-07-23T07:54:05;33.60;35.70
61374;DHT22;47242;48.158;-1.586;2022-07-23T07:56:31;34.30;35.40
61374;DHT22;47242;48.158;-1.586;2022-07-23T07:58:56;34.90;33.20
61374;DHT22;47242;48.158;-1.586;2022-07-23T08:01:22;35.30;32.70
61374;DHT22;47242;48.158;-1.586;2022-07-23T08:03:48;35.60;32.40
61374;DHT22;47242;48.158;-1.586;2022-07-23T08:06:13;35.90;31.50
61374;DHT22;47242;48.158;-1.586;2022-07-23T08:08:39;36.40;31.40
61374;DHT22;47242;48.158;-1.586;2022-07-23T08:11:05;36.90;30.10
61374;DHT22;47242;48.158;-1.586;2022-07-23T08:13:30;36.80;30.10
61374;DHT22;47242;48.158;-1.586;2022-07-23T08:15:56;36.40;30.20
61374;DHT22;47242;48.158;-1.586;2022-07-23T08:18:22;37.10;29.90
61374;DHT22;47242;48.158;-1.586;2022-07-23T08:20:47;37.60;28.80
61374;DHT22;47242;48.158;-1.586;2022-07-23T08:23:13;38.30;27.90
61374;DHT22;47242;48.158;-1.586;2022-07-23T08:25:41;38.80;27.50
61374;DHT22;47242;48.158;-1.586;2022-07-23T08:28:09;38.80;26.10
61374;DHT22;47242;48.158;-1.586;2022-07-23T08:30:36;38.80;27.10
61374;DHT22;47242;48.158;-1.586;2022-07-23T08:33:09;39.20;26.90
61374;DHT22;47242;48.158;-1.586;2022-07-23T08:35:42;38.00;28.00
61374;DHT22;47242;48.158;-1.586;2022-07-23T08:38:10;38.40;27.50
61374;DHT22;47242;48.158;-1.586;2022-07-23T08:40:39;39.00;27.00
61374;DHT22;47242;48.158;-1.586;2022-07-23T08:43:06;39.70;25.70
61374;DHT22;47242;48.158;-1.586;2022-07-23T08:45:37;40.10;25.50
61374;DHT22;47242;48.158;-1.586;2022-07-23T08:48:07;40.20;24.60
61374;DHT22;47242;48.158;-1.586;2022-07-23T08:50:34;40.30;24.70
61374;DHT22;47242;48.158;-1.586;2022-07-23T08:53:02;40.80;24.20
61374;DHT22;47242;48.158;-1.586;2022-07-23T08:55:28;41.10;24.00
61374;DHT22;47242;48.158;-1.586;2022-07-23T08:57:53;40.10;24.50
61374;DHT22;47242;48.158;-1.586;2022-07-23T09:00:20;37.70;26.90
61374;DHT22;47242;48.158;-1.586;2022-07-23T09:02:47;37.20;27.60
61374;DHT22;47242;48.158;-1.586;2022-07-23T09:05:13;38.10;26.50
61374;DHT22;47242;48.158;-1.586;2022-07-23T09:08:07;38.60;26.10
61374;DHT22;47242;48.158;-1.586;2022-07-23T09:10:58;38.80;25.10
61374;DHT22;47242;48.158;-1.586;2022-07-23T09:15:51;39.20;24.50
61374;DHT22;47242;48.158;-1.586;2022-07-23T09:18:17;39.90;24.50
61374;DHT22;47242;48.158;-1.586;2022-07-23T09:20:45;40.20;24.10
61374;DHT22;47242;48.158;-1.586;2022-07-23T09:23:11;38.70;25.60
61374;DHT22;47242;48.158;-1.586;2022-07-23T09:25:37;37.10;27.00
61374;DHT22;47242;48.158;-1.586;2022-07-23T09:28:02;35.30;28.60
61374;DHT22;47242;48.158;-1.586;2022-07-23T09:30:32;33.90;30.90
61374;DHT22;47242;48.158;-1.586;2022-07-23T09:33:13;32.90;32.10
61374;DHT22;47242;48.158;-1.586;2022-07-23T09:35:55;31.70;34.00
61374;DHT22;47242;48.158;-1.586;2022-07-23T09:38:23;30.50;35.50
61374;DHT22;47242;48.158;-1.586;2022-07-23T09:41:11;30.70;35.10
61374;DHT22;47242;48.158;-1.586;2022-07-23T09:43:37;33.20;31.30
61374;DHT22;47242;48.158;-1.586;2022-07-23T09:48:47;36.30;28.30
61374;DHT22;47242;48.158;-1.586;2022-07-23T09:51:13;36.80;27.10
61374;DHT22;47242;48.158;-1.586;2022-07-23T09:53:57;37.30;26.20
61374;DHT22;47242;48.158;-1.586;2022-07-23T09:56:23;38.00;26.30
61374;DHT22;47242;48.158;-1.586;2022-07-23T09:58:52;38.60;25.20
61374;DHT22;47242;48.158;-1.586;2022-07-23T10:01:28;39.20;25.00
61374;DHT22;47242;48.158;-1.586;2022-07-23T10:03:54;39.30;24.80
61374;DHT22;47242;48.158;-1.586;2022-07-23T10:06:21;39.40;24.80
61374;DHT22;47242;48.158;-1.586;2022-07-23T10:08:48;39.70;24.30
61374;DHT22;47242;48.158;-1.586;2022-07-23T10:11:14;39.30;24.80
61374;DHT22;47242;48.158;-1.586;2022-07-23T10:13:42;39.20;24.80
61374;DHT22;47242;48.158;-1.586;2022-07-23T10:16:21;39.10;23.90
61374;DHT22;47242;48.158;-1.586;2022-07-23T10:18:48;38.90;24.20
61374;DHT22;47242;48.158;-1.586;2022-07-23T10:21:21;39.00;24.80
61374;DHT22;47242;48.158;-1.586;2022-07-23T10:24:10;38.90;24.50
61374;DHT22;47242;48.158;-1.586;2022-07-23T10:32:00;37.80;24.40
61374;DHT22;47242;48.158;-1.586;2022-07-23T10:34:52;37.80;25.00
61374;DHT22;47242;48.158;-1.586;2022-07-23T10:42:36;36.90;26.20
61374;DHT22;47242;48.158;-1.586;2022-07-23T10:45:34;36.30;27.20
61374;DHT22;47242;48.158;-1.586;2022-07-23T10:48:20;35.10;28.40
61374;DHT22;47242;48.158;-1.586;2022-07-23T10:51:05;33.80;30.20
61374;DHT22;47242;48.158;-1.586;2022-07-23T10:56:17;32.70;31.60
61374;DHT22;47242;48.158;-1.586;2022-07-23T10:58:47;32.20;33.00
61374;DHT22;47242;48.158;-1.586;2022-07-23T11:01:40;31.60;32.60
61374;DHT22;47242;48.158;-1.586;2022-07-23T11:04:05;31.30;33.40
61374;DHT22;47242;48.158;-1.586;2022-07-23T11:09:28;30.90;33.90
61374;DHT22;47242;48.158;-1.586;2022-07-23T11:15:09;30.40;34.00
61374;DHT22;47242;48.158;-1.586;2022-07-23T11:25:13;29.80;35.90
61374;DHT22;47242;48.158;-1.586;2022-07-23T11:27:54;29.60;35.80
61374;DHT22;47242;48.158;-1.586;2022-07-23T11:32:51;29.60;36.30
61374;DHT22;47242;48.158;-1.586;2022-07-23T11:35:21;29.60;36.00
61374;DHT22;47242;48.158;-1.586;2022-07-23T11:37:48;29.60;35.90
61374;DHT22;47242;48.158;-1.586;2022-07-23T11:40:16;29.70;35.60
61374;DHT22;47242;48.158;-1.586;2022-07-23T11:45:34;29.70;35.20
61374;DHT22;47242;48.158;-1.586;2022-07-23T11:48:00;29.80;35.20
61374;DHT22;47242;48.158;-1.586;2022-07-23T11:50:26;29.60;34.40
61374;DHT22;47242;48.158;-1.586;2022-07-23T11:52:53;29.50;34.70
61374;DHT22;47242;48.158;-1.586;2022-07-23T11:55:20;29.30;34.40
61374;DHT22;47242;48.158;-1.586;2022-07-23T11:57:45;29.30;35.20
61374;DHT22;47242;48.158;-1.586;2022-07-23T12:00:22;29.30;34.80
61374;DHT22;47242;48.158;-1.586;2022-07-23T12:02:51;29.30;34.50
61374;DHT22;47242;48.158;-1.586;2022-07-23T12:05:26;29.30;35.40
61374;DHT22;47242;48.158;-1.586;2022-07-23T12:07:53;29.40;35.70
61374;DHT22;47242;48.158;-1.586;2022-07-23T12:10:40;29.30;35.10
61374;DHT22;47242;48.158;-1.586;2022-07-23T12:13:13;29.00;36.20
61374;DHT22;47242;48.158;-1.586;2022-07-23T12:15:44;29.00;36.80
61374;DHT22;47242;48.158;-1.586;2022-07-23T12:18:14;29.00;36.20
61374;DHT22;47242;48.158;-1.586;2022-07-23T12:20:46;29.10;36.20
61374;DHT22;47242;48.158;-1.586;2022-07-23T12:23:14;29.20;35.70
61374;DHT22;47242;48.158;-1.586;2022-07-23T12:25:43;29.10;35.80
61374;DHT22;47242;48.158;-1.586;2022-07-23T12:28:22;28.90;36.10
61374;DHT22;47242;48.158;-1.586;2022-07-23T12:30:54;29.00;36.60
61374;DHT22;47242;48.158;-1.586;2022-07-23T12:35:53;29.10;35.20
61374;DHT22;47242;48.158;-1.586;2022-07-23T12:38:21;29.30;36.60
61374;DHT22;47242;48.158;-1.586;2022-07-23T12:40:55;29.30;36.70
61374;DHT22;47242;48.158;-1.586;2022-07-23T12:43:29;29.50;36.10
61374;DHT22;47242;48.158;-1.586;2022-07-23T12:46:01;29.60;34.20
61374;DHT22;47242;48.158;-1.586;2022-07-23T12:48:32;29.50;34.70
61374;DHT22;47242;48.158;-1.586;2022-07-23T12:51:04;29.30;35.20
61374;DHT22;47242;48.158;-1.586;2022-07-23T12:53:39;29.30;35.20
61374;DHT22;47242;48.158;-1.586;2022-07-23T12:56:08;29.20;35.80
61374;DHT22;47242;48.158;-1.586;2022-07-23T13:01:23;29.30;34.10
61374;DHT22;47242;48.158;-1.586;2022-07-23T13:04:08;29.30;34.70
61374;DHT22;47242;48.158;-1.586;2022-07-23T13:06:40;29.30;34.50
61374;DHT22;47242;48.158;-1.586;2022-07-23T13:09:09;29.40;34.60
61374;DHT22;47242;48.158;-1.586;2022-07-23T13:11:35;29.50;34.70
61374;DHT22;47242;48.158;-1.586;2022-07-23T13:14:01;29.60;34.80
61374;DHT22;47242;48.158;-1.586;2022-07-23T13:16:28;29.80;34.40
61374;DHT22;47242;48.158;-1.586;2022-07-23T13:18:54;29.80;33.60
61374;DHT22;47242;48.158;-1.586;2022-07-23T13:21:22;29.80;35.00
61374;DHT22;47242;48.158;-1.586;2022-07-23T13:23:48;29.60;33.10
61374;DHT22;47242;48.158;-1.586;2022-07-23T13:26:14;29.70;34.20
61374;DHT22;47242;48.158;-1.586;2022-07-23T13:28:40;29.80;34.60
61374;DHT22;47242;48.158;-1.586;2022-07-23T13:31:06;29.70;33.50
61374;DHT22;47242;48.158;-1.586;2022-07-23T13:33:32;29.80;34.00
61374;DHT22;47242;48.158;-1.586;2022-07-23T13:35:58;29.80;33.50
61374;DHT22;47242;48.158;-1.586;2022-07-23T13:38:24;29.80;33.40
61374;DHT22;47242;48.158;-1.586;2022-07-23T13:40:51;29.80;33.10
61374;DHT22;47242;48.158;-1.586;2022-07-23T13:43:19;29.80;34.10
61374;DHT22;47242;48.158;-1.586;2022-07-23T13:45:46;29.80;33.80
61374;DHT22;47242;48.158;-1.586;2022-07-23T13:48:13;29.90;34.20
61374;DHT22;47242;48.158;-1.586;2022-07-23T13:50:40;29.80;33.20
61374;DHT22;47242;48.158;-1.586;2022-07-23T13:53:08;29.80;34.00
61374;DHT22;47242;48.158;-1.586;2022-07-23T13:55:35;29.80;33.70
61374;DHT22;47242;48.158;-1.586;2022-07-23T13:58:01;29.70;33.80
61374;DHT22;47242;48.158;-1.586;2022-07-23T14:00:29;29.60;34.40
61374;DHT22;47242;48.158;-1.586;2022-07-23T14:02:56;29.60;33.50
61374;DHT22;47242;48.158;-1.586;2022-07-23T14:05:22;29.70;34.10
61374;DHT22;47242;48.158;-1.586;2022-07-23T14:07:48;29.70;34.20
61374;DHT22;47242;48.158;-1.586;2022-07-23T14:10:16;29.70;34.90
61374;DHT22;47242;48.158;-1.586;2022-07-23T14:12:43;29.80;34.00
61374;DHT22;47242;48.158;-1.586;2022-07-23T14:15:09;29.80;34.00
61374;DHT22;47242;48.158;-1.586;2022-07-23T14:17:40;29.90;34.50
61374;DHT22;47242;48.158;-1.586;2022-07-23T14:20:06;30.00;34.10
61374;DHT22;47242;48.158;-1.586;2022-07-23T14:22:33;30.00;32.90
61374;DHT22;47242;48.158;-1.586;2022-07-23T14:24:58;30.00;33.50
61374;DHT22;47242;48.158;-1.586;2022-07-23T14:27:26;30.00;33.60
61374;DHT22;47242;48.158;-1.586;2022-07-23T14:29:53;30.20;33.50
61374;DHT22;47242;48.158;-1.586;2022-07-23T14:32:19;30.10;32.70
61374;DHT22;47242;48.158;-1.586;2022-07-23T14:34:44;29.90;31.60
61374;DHT22;47242;48.158;-1.586;2022-07-23T14:37:11;29.80;32.20
61374;DHT22;47242;48.158;-1.586;2022-07-23T14:39:38;29.90;32.40
61374;DHT22;47242;48.158;-1.586;2022-07-23T14:42:04;29.90;32.60
61374;DHT22;47242;48.158;-1.586;2022-07-23T14:44:30;29.80;32.30
61374;DHT22;47242;48.158;-1.586;2022-07-23T14:46:55;29.90;33.00
61374;DHT22;47242;48.158;-1.586;2022-07-23T14:49:21;30.00;32.70
61374;DHT22;47242;48.158;-1.586;2022-07-23T14:51:47;29.90;31.80
61374;DHT22;47242;48.158;-1.586;2022-07-23T14:54:13;29.80;32.10
61374;DHT22;47242;48.158;-1.586;2022-07-23T14:56:40;29.80;31.50
61374;DHT22;47242;48.158;-1.586;2022-07-23T14:59:06;29.80;32.20
61374;DHT22;47242;48.158;-1.586;2022-07-23T15:01:32;29.80;31.60
61374;DHT22;47242;48.158;-1.586;2022-07-23T15:03:57;29.80;32.30
61374;DHT22;47242;48.158;-1.586;2022-07-23T15:06:23;29.80;31.20
61374;DHT22;47242;48.158;-1.586;2022-07-23T15:08:49;29.70;32.50
61374;DHT22;47242;48.158;-1.586;2022-07-23T15:11:15;29.80;31.80
61374;DHT22;47242;48.158;-1.586;2022-07-23T15:13:41;29.80;32.40
61374;DHT22;47242;48.158;-1.586;2022-07-23T15:16:07;29.90;32.30
61374;DHT22;47242;48.158;-1.586;2022-07-23T15:18:33;30.00;32.00
61374;DHT22;47242;48.158;-1.586;2022-07-23T15:20:59;30.00;32.20
61374;DHT22;47242;48.158;-1.586;2022-07-23T15:23:26;29.80;32.20
61374;DHT22;47242;48.158;-1.586;2022-07-23T15:25:54;29.90;31.70
61374;DHT22;47242;48.158;-1.586;2022-07-23T15:28:20;30.00;32.60
61374;DHT22;47242;48.158;-1.586;2022-07-23T15:30:46;29.90;32.50
61374;DHT22;47242;48.158;-1.586;2022-07-23T15:33:12;29.90;32.70
61374;DHT22;47242;48.158;-1.586;2022-07-23T15:35:38;29.90;32.50
61374;DHT22;47242;48.158;-1.586;2022-07-23T15:38:03;29.80;32.30
61374;DHT22;47242;48.158;-1.586;2022-07-23T15:40:29;29.80;32.50
61374;DHT22;47242;48.158;-1.586;2022-07-23T15:42:55;29.80;32.70
61374;DHT22;47242;48.158;-1.586;2022-07-23T15:45:20;29.90;32.50
61374;DHT22;47242;48.158;-1.586;2022-07-23T15:47:47;29.90;33.00
61374;DHT22;47242;48.158;-1.586;2022-07-23T15:50:14;29.90;32.20
61374;DHT22;47242;48.158;-1.586;2022-07-23T15:52:40;29.90;32.70
61374;DHT22;47242;48.158;-1.586;2022-07-23T15:55:06;29.80;32.60
61374;DHT22;47242;48.158;-1.586;2022-07-23T15:57:32;29.90;33.30
61374;DHT22;47242;48.158;-1.586;2022-07-23T15:59:58;29.80;33.10